createdAt,value
2019-01-14T00:00:42.031Z,2.40
2019-01-14T00:03:11.930Z,1.90
2019-01-14T00:05:41.779Z,1.73
2019-01-14T00:08:11.525Z,1.80
2019-01-14T00:10:41.188Z,1.50
2019-01-14T00:13:10.877Z,1.77
2019-01-14T00:15:40.614Z,1.63
2019-01-14T00:18:10.512Z,1.50
2019-01-14T00:20:40.385Z,2.13
2019-01-14T00:23:10.172Z,1.60
2019-01-14T00:25:39.822Z,1.60
2019-01-14T00:28:09.663Z,1.90
2019-01-14T00:30:39.326Z,1.47
2019-01-14T00:33:09.061Z,1.73
2019-01-14T00:35:38.767Z,1.90
2019-01-14T00:38:08.510Z,1.87
2019-01-14T00:40:38.298Z,1.70
2019-01-14T00:43:08.106Z,1.80
2019-01-14T00:45:37.827Z,2.20
2019-01-14T00:48:07.549Z,2.50
2019-01-14T00:50:37.185Z,2.63
2019-01-14T00:53:06.955Z,2.10
2019-01-14T00:55:36.670Z,2.50
2019-01-14T00:58:06.458Z,2.10
2019-01-14T01:00:36.439Z,2.43
2019-01-14T01:03:06.903Z,2.43
2019-01-14T01:05:36.719Z,2.60
2019-01-14T01:08:06.682Z,3.03
2019-01-14T01:10:36.357Z,2.67
2019-01-14T01:13:06.279Z,2.80
2019-01-14T01:15:36.105Z,2.93
2019-01-14T01:18:06.123Z,2.80
2019-01-14T01:20:36.731Z,2.83
2019-01-14T01:23:06.389Z,3.27
2019-01-14T01:25:36.142Z,3.67
2019-01-14T01:28:05.854Z,2.77
2019-01-14T01:30:35.554Z,3.20
2019-01-14T01:33:05.273Z,3.13
2019-01-14T01:35:34.989Z,3.20
2019-01-14T01:38:04.829Z,3.20
2019-01-14T01:40:34.640Z,3.23
2019-01-14T01:43:04.577Z,3.43
2019-01-14T01:45:34.240Z,2.77
2019-01-14T01:48:03.996Z,3.53
2019-01-14T01:50:33.718Z,3.70
2019-01-14T01:53:03.395Z,3.50
2019-01-14T01:55:33.239Z,6.50
2019-01-14T01:58:02.913Z,7.33
2019-01-14T02:00:32.888Z,7.17
2019-01-14T02:03:02.534Z,6.27
2019-01-14T02:05:32.362Z,3.53
2019-01-14T02:08:02.099Z,3.97
2019-01-14T02:10:31.937Z,4.20
2019-01-14T02:13:01.579Z,3.87
2019-01-14T02:15:31.362Z,4.03
2019-01-14T02:18:01.009Z,3.97
2019-01-14T02:20:30.791Z,3.83
2019-01-14T02:23:00.463Z,3.77
2019-01-14T02:25:30.167Z,3.60
2019-01-14T02:27:59.902Z,3.47
2019-01-14T02:30:29.655Z,4.07
2019-01-14T02:32:59.352Z,3.40
2019-01-14T02:35:29.028Z,3.03
2019-01-14T02:37:58.705Z,3.23
2019-01-14T02:40:28.446Z,3.47
2019-01-14T02:42:58.123Z,3.37
2019-01-14T02:45:27.875Z,3.60
2019-01-14T02:47:57.581Z,3.43
2019-01-14T02:50:27.227Z,2.97
2019-01-14T02:52:56.861Z,2.93
2019-01-14T02:55:26.611Z,3.17
2019-01-14T02:57:56.323Z,2.70
2019-01-14T03:00:27.724Z,3.07
2019-01-14T03:02:57.471Z,3.60
2019-01-14T03:05:27.191Z,3.67
2019-01-14T03:07:57.119Z,4.00
2019-01-14T03:10:26.823Z,3.70
2019-01-14T03:12:56.578Z,3.20
2019-01-14T03:15:26.330Z,3.57
2019-01-14T03:17:56.086Z,3.30
2019-01-14T03:20:25.979Z,2.90
2019-01-14T03:22:55.721Z,3.00
2019-01-14T03:25:25.465Z,3.30
2019-01-14T03:27:55.162Z,3.30
2019-01-14T03:30:24.967Z,3.73
2019-01-14T03:32:54.724Z,3.30
2019-01-14T03:35:24.589Z,2.70
2019-01-14T03:37:54.512Z,3.70
2019-01-14T03:40:24.226Z,3.90
2019-01-14T03:42:53.894Z,3.50
2019-01-14T03:45:23.747Z,3.80
2019-01-14T03:47:53.478Z,4.20
2019-01-14T03:50:23.760Z,4.30
2019-01-14T03:52:53.814Z,3.60
2019-01-14T03:55:23.663Z,4.67
2019-01-14T03:57:54.687Z,4.07
2019-01-14T04:00:25.089Z,3.90
2019-01-14T04:02:54.842Z,3.63
2019-01-14T04:05:24.574Z,3.27
2019-01-14T04:07:54.469Z,3.33
2019-01-14T04:10:24.244Z,3.47
2019-01-14T04:12:54.055Z,3.27
2019-01-14T04:15:23.768Z,3.07
2019-01-14T04:17:53.558Z,3.40
2019-01-14T04:20:23.417Z,3.07
2019-01-14T04:22:53.073Z,2.93
2019-01-14T04:25:22.769Z,3.87
2019-01-14T04:27:52.574Z,3.93
2019-01-14T04:30:24.166Z,3.10
2019-01-14T04:32:53.903Z,3.50
2019-01-14T04:35:23.867Z,4.60
2019-01-14T04:37:53.679Z,3.83
2019-01-14T04:40:23.555Z,3.20
2019-01-14T04:42:53.298Z,3.13
2019-01-14T04:45:23.043Z,3.47
2019-01-14T04:47:52.699Z,2.90
2019-01-14T04:50:23.359Z,2.80
2019-01-14T04:52:53.012Z,2.83
2019-01-14T04:55:22.849Z,2.90
2019-01-14T04:57:52.556Z,2.67
2019-01-14T05:00:24.733Z,3.37
2019-01-14T05:02:54.654Z,3.40
2019-01-14T05:05:24.757Z,3.87
2019-01-14T05:07:54.569Z,3.00
2019-01-14T05:10:24.482Z,4.30
2019-01-14T05:12:54.177Z,4.73
2019-01-14T05:15:23.907Z,4.83
2019-01-14T05:17:53.616Z,3.97
2019-01-14T05:20:26.099Z,3.10
2019-01-14T05:22:56.689Z,3.70
2019-01-14T05:25:26.567Z,2.93
2019-01-14T05:27:56.339Z,4.00
2019-01-14T05:30:26.268Z,3.20
2019-01-14T05:32:55.977Z,3.20
2019-01-14T05:35:25.820Z,4.27
2019-01-14T05:37:55.599Z,3.77
2019-01-14T05:40:26.856Z,3.60
2019-01-14T05:42:56.645Z,3.50
2019-01-14T05:45:26.549Z,3.53
2019-01-14T05:47:56.200Z,3.23
2019-01-14T05:50:25.951Z,3.67
2019-01-14T05:52:55.739Z,3.30
2019-01-14T05:55:25.438Z,3.17
2019-01-14T05:57:55.094Z,2.97
2019-01-14T06:00:33.429Z,3.17
2019-01-14T06:03:03.155Z,3.20
2019-01-14T06:05:32.908Z,3.43
2019-01-14T06:08:02.703Z,3.27
2019-01-14T06:10:32.446Z,2.87
2019-01-14T06:13:02.127Z,3.47
2019-01-14T06:15:32.073Z,2.77
2019-01-14T06:18:01.808Z,3.17
2019-01-14T06:20:32.002Z,3.40
2019-01-14T06:23:01.790Z,5.97
2019-01-14T06:25:31.646Z,4.67
2019-01-14T06:28:01.655Z,4.73
2019-01-14T06:30:32.120Z,7.57
2019-01-14T06:33:01.805Z,9.03
2019-01-14T06:35:31.881Z,7.70
2019-01-14T06:38:01.730Z,6.57
2019-01-14T06:40:31.547Z,6.83
2019-01-14T06:43:02.649Z,6.43
2019-01-14T06:45:32.317Z,6.13
2019-01-14T06:48:02.165Z,5.80
2019-01-14T06:50:31.959Z,5.00
2019-01-14T06:53:02.088Z,4.43
2019-01-14T06:55:31.731Z,4.10
2019-01-14T06:58:01.383Z,3.73
2019-01-14T07:00:31.266Z,4.30
2019-01-14T07:03:01.119Z,4.23
2019-01-14T07:05:30.810Z,4.40
2019-01-14T07:08:00.631Z,4.37
2019-01-14T07:10:31.926Z,5.60
2019-01-14T07:13:01.759Z,4.13
2019-01-14T07:15:31.480Z,4.87
2019-01-14T07:18:01.183Z,4.87
2019-01-14T07:20:30.947Z,5.77
2019-01-14T07:23:00.598Z,6.87
2019-01-14T07:25:30.348Z,5.10
2019-01-14T07:28:00.183Z,4.87
2019-01-14T07:30:30.009Z,4.87
2019-01-14T07:32:59.684Z,4.97
2019-01-14T07:35:29.422Z,3.53
2019-01-14T07:38:02.866Z,4.33
2019-01-14T07:40:30.515Z,4.33
2019-01-14T07:43:00.303Z,3.33
2019-01-14T07:45:30.019Z,3.83
2019-01-14T07:47:59.850Z,3.93
2019-01-14T07:50:29.518Z,4.97
2019-01-14T07:52:59.342Z,5.97
2019-01-14T07:55:29.106Z,5.63
2019-01-14T07:57:58.858Z,5.10
2019-01-14T08:00:28.536Z,3.30
2019-01-14T08:02:58.272Z,2.77
2019-01-14T08:05:28.197Z,3.23
2019-01-14T08:07:57.895Z,2.00
2019-01-14T08:10:27.565Z,2.30
2019-01-14T08:12:57.293Z,2.00
2019-01-14T08:15:27.042Z,2.93
2019-01-14T08:17:56.766Z,3.80
2019-01-14T08:20:26.467Z,4.07
2019-01-14T08:22:56.244Z,3.83
2019-01-14T08:25:26.285Z,4.13
2019-01-14T08:27:56.024Z,4.20
2019-01-14T08:30:25.965Z,4.23
2019-01-14T08:32:55.647Z,3.87
2019-01-14T08:35:25.323Z,4.63
2019-01-14T08:37:55.134Z,3.93
2019-01-14T08:40:24.874Z,3.40
2019-01-14T08:42:54.559Z,3.33
2019-01-14T08:45:24.265Z,3.33
2019-01-14T08:50:28.734Z,2.90
2019-01-14T08:52:58.570Z,2.73
2019-01-14T08:55:28.434Z,3.40
2019-01-14T08:57:58.149Z,3.50
2019-01-14T09:00:28.030Z,3.97
2019-01-14T09:02:57.769Z,4.00
2019-01-14T09:05:27.694Z,3.43
2019-01-14T09:07:57.502Z,3.53
2019-01-14T09:10:27.517Z,3.37
2019-01-14T09:12:57.312Z,3.10
2019-01-14T09:15:27.222Z,3.77
2019-01-14T09:18:02.699Z,2.53
2019-01-14T09:20:28.830Z,3.53
2019-01-14T09:22:58.507Z,3.00
2019-01-14T09:25:28.301Z,3.47
2019-01-14T09:27:58.206Z,3.07
2019-01-14T09:30:28.231Z,3.33
2019-01-14T09:32:58.158Z,4.03
2019-01-14T09:35:27.972Z,3.57
2019-01-14T09:37:57.655Z,3.37
2019-01-14T09:40:27.446Z,4.17
2019-01-14T09:42:57.278Z,3.80
2019-01-14T09:45:27.008Z,3.53
2019-01-14T09:47:56.830Z,3.97
2019-01-14T09:50:26.615Z,3.73
2019-01-14T09:52:57.653Z,3.80
2019-01-14T09:55:27.417Z,3.50
2019-01-14T09:57:57.183Z,3.33
2019-01-14T10:00:27.050Z,3.73
2019-01-14T10:02:57.041Z,4.10
2019-01-14T10:05:26.906Z,4.27
2019-01-14T10:07:56.645Z,3.97
2019-01-14T10:10:26.787Z,3.83
2019-01-14T10:12:56.643Z,4.30
2019-01-14T10:15:27.981Z,3.80
2019-01-14T10:17:59.514Z,2.13
2019-01-14T10:20:29.271Z,1.67
2019-01-14T10:22:59.222Z,1.60
2019-01-14T10:25:29.588Z,1.50
2019-01-14T10:27:59.314Z,1.67
2019-01-14T10:30:29.114Z,1.53
2019-01-14T10:32:58.884Z,1.27
2019-01-14T10:35:28.554Z,1.83
2019-01-14T10:37:58.258Z,1.90
2019-01-14T10:40:27.897Z,1.97
2019-01-14T10:42:57.724Z,2.07
2019-01-14T10:45:27.383Z,2.70
2019-01-14T10:47:57.134Z,3.00
2019-01-14T10:50:26.889Z,3.10
2019-01-14T10:52:56.609Z,2.10
2019-01-14T10:55:26.458Z,2.47
2019-01-14T10:57:56.089Z,2.33
2019-01-14T11:00:27.576Z,3.03
2019-01-14T11:02:57.926Z,2.13
2019-01-14T11:05:29.770Z,1.93
2019-01-14T11:07:59.596Z,2.03
2019-01-14T11:10:29.383Z,1.90
2019-01-14T11:12:59.207Z,2.17
2019-01-14T11:15:28.992Z,3.23
2019-01-14T11:17:58.689Z,2.20
2019-01-14T11:20:30.842Z,2.10
2019-01-14T11:23:02.673Z,2.33
2019-01-14T11:25:32.482Z,1.93
2019-01-14T11:28:02.479Z,2.23
2019-01-14T11:30:32.682Z,2.37
2019-01-14T11:33:02.697Z,2.60
2019-01-14T11:35:32.431Z,2.20
2019-01-14T11:38:02.131Z,2.00
2019-01-14T11:40:35.637Z,1.60
2019-01-14T11:43:05.699Z,2.03
2019-01-14T11:45:35.668Z,1.63
2019-01-14T11:48:05.868Z,1.90
2019-01-14T11:50:35.705Z,2.43
2019-01-14T11:53:05.882Z,1.97
2019-01-14T11:55:35.654Z,1.73
2019-01-14T11:58:05.685Z,1.77
2019-01-14T12:00:37.124Z,2.27
2019-01-14T12:03:08.619Z,2.20
2019-01-14T12:05:38.618Z,2.20
2019-01-14T12:08:08.415Z,2.10
2019-01-14T12:10:38.197Z,1.57
2019-01-14T12:13:07.901Z,2.20
2019-01-14T12:15:37.557Z,2.70
2019-01-14T12:18:07.544Z,2.03
2019-01-14T12:20:37.494Z,2.40
2019-01-14T12:23:07.386Z,2.13
2019-01-14T12:25:37.102Z,2.27
2019-01-14T12:28:06.865Z,3.00
2019-01-14T12:30:39.205Z,2.70
2019-01-14T12:33:09.053Z,1.30
2019-01-14T12:35:39.501Z,1.10
2019-01-14T12:38:09.443Z,1.50
2019-01-14T12:40:39.175Z,1.70
2019-01-14T12:43:08.963Z,2.03
2019-01-14T12:45:38.713Z,2.43
2019-01-14T12:48:08.631Z,3.03
2019-01-14T12:50:38.503Z,2.60
2019-01-14T12:53:08.251Z,2.80
2019-01-14T12:55:37.960Z,3.47
2019-01-14T12:58:07.707Z,3.70
2019-01-14T13:00:37.392Z,2.77
2019-01-14T13:03:07.167Z,3.27
2019-01-14T13:05:36.987Z,2.57
2019-01-14T13:08:07.105Z,3.10
2019-01-14T13:10:36.874Z,2.57
2019-01-14T13:13:06.684Z,2.27
2019-01-14T13:15:36.586Z,2.43
2019-01-14T13:18:06.478Z,2.13
2019-01-14T13:20:36.311Z,2.00
2019-01-14T13:23:06.183Z,2.20
2019-01-14T13:25:35.851Z,2.03
2019-01-14T13:28:06.183Z,2.30
2019-01-14T13:30:35.931Z,2.17
2019-01-14T13:33:05.901Z,2.63
2019-01-14T13:35:35.682Z,2.10
2019-01-14T13:38:06.051Z,2.30
2019-01-14T13:40:35.899Z,2.50
2019-01-14T13:43:05.740Z,2.17
2019-01-14T13:45:35.503Z,2.57
2019-01-14T13:48:05.805Z,1.93
2019-01-14T13:50:35.611Z,2.10
2019-01-14T13:53:05.516Z,2.20
2019-01-14T13:55:35.313Z,2.20
2019-01-14T13:58:05.251Z,2.17
2019-01-14T14:00:34.980Z,1.57
2019-01-14T14:03:04.721Z,1.57
2019-01-14T14:05:34.389Z,1.90
2019-01-14T14:08:04.044Z,2.13
2019-01-14T14:10:34.140Z,1.50
2019-01-14T14:13:03.941Z,2.20
2019-01-14T14:15:33.837Z,1.90
2019-01-14T14:18:03.840Z,1.90
2019-01-14T14:20:33.659Z,2.10
2019-01-14T14:23:03.455Z,1.67
2019-01-14T14:25:33.213Z,1.90
2019-01-14T14:28:03.184Z,1.90
2019-01-14T14:30:36.337Z,2.00
2019-01-14T14:33:06.367Z,2.27
2019-01-14T14:35:36.208Z,1.83
2019-01-14T14:38:06.564Z,2.00
2019-01-14T14:40:36.317Z,2.40
2019-01-14T14:43:06.415Z,2.27
2019-01-14T14:45:36.270Z,1.90
2019-01-14T14:48:06.507Z,2.00
2019-01-14T14:50:36.309Z,2.30
2019-01-14T14:53:06.233Z,2.13
2019-01-14T14:55:35.899Z,2.00
2019-01-14T14:58:06.037Z,1.70
2019-01-14T15:00:35.721Z,2.37
2019-01-14T15:03:05.611Z,2.10
2019-01-14T15:05:35.330Z,2.07
2019-01-14T15:08:05.814Z,3.20
2019-01-14T15:10:35.468Z,2.37
2019-01-14T15:13:05.405Z,2.30
2019-01-14T15:15:35.105Z,2.27
2019-01-14T15:18:05.310Z,1.80
2019-01-14T15:20:35.053Z,1.60
2019-01-14T15:23:04.950Z,1.50
2019-01-14T15:25:34.779Z,1.97
2019-01-14T15:28:04.729Z,1.40
2019-01-14T15:30:34.773Z,1.40
2019-01-14T15:33:04.758Z,1.33
2019-01-14T15:35:34.432Z,1.87
2019-01-14T15:38:07.950Z,1.33
2019-01-14T15:40:37.763Z,1.50
2019-01-14T15:43:07.576Z,1.90
2019-01-14T15:45:37.276Z,1.53
2019-01-14T15:48:07.067Z,2.03
2019-01-14T15:50:36.764Z,2.40
2019-01-14T15:53:06.613Z,1.77
2019-01-14T15:55:36.321Z,2.10
2019-01-14T15:58:06.080Z,2.73
2019-01-14T16:00:35.803Z,2.30
2019-01-14T16:03:05.607Z,2.23
2019-01-14T16:05:35.497Z,2.10
2019-01-14T16:08:05.387Z,2.00
2019-01-14T16:10:35.241Z,1.60
2019-01-14T16:13:05.044Z,2.23
2019-01-14T16:15:34.697Z,3.43
2019-01-14T16:18:04.522Z,3.57
2019-01-14T16:20:34.187Z,3.23
2019-01-14T16:23:04.018Z,3.70
2019-01-14T16:25:33.719Z,3.20
2019-01-14T16:28:03.422Z,3.07
2019-01-14T16:30:33.177Z,3.10
2019-01-14T16:33:04.144Z,4.87
2019-01-14T16:35:33.918Z,6.73
2019-01-14T16:38:03.700Z,7.50
2019-01-14T16:40:33.638Z,8.03
2019-01-14T16:43:04.458Z,7.53
2019-01-14T16:45:35.158Z,6.57
2019-01-14T16:48:04.943Z,6.03
2019-01-14T16:50:34.665Z,6.10
2019-01-14T16:53:04.411Z,5.80
2019-01-14T16:55:35.808Z,4.77
2019-01-14T16:58:05.535Z,6.43
2019-01-14T17:00:35.352Z,4.43
2019-01-14T17:03:05.306Z,4.80
2019-01-14T17:05:35.635Z,4.20
2019-01-14T17:08:05.844Z,3.13
2019-01-14T17:10:35.527Z,3.07
2019-01-14T17:13:05.450Z,2.90
2019-01-14T17:15:35.150Z,2.80
2019-01-14T17:18:05.378Z,3.13
2019-01-14T17:20:35.274Z,3.50
2019-01-14T17:23:05.409Z,3.80
2019-01-14T17:28:10.514Z,4.20
2019-01-14T17:30:40.256Z,5.07
2019-01-14T17:33:09.981Z,5.30
2019-01-14T17:35:39.906Z,6.10
2019-01-14T17:38:09.718Z,4.33
2019-01-14T17:40:39.617Z,4.13
2019-01-14T17:43:09.321Z,4.77
2019-01-14T17:45:39.083Z,5.20
2019-01-14T17:48:09.011Z,5.20
2019-01-14T17:50:40.420Z,5.70
2019-01-14T17:53:10.474Z,6.93
2019-01-14T17:55:40.262Z,7.20
2019-01-14T17:58:10.059Z,8.40
2019-01-14T18:00:40.407Z,15.63
2019-01-14T18:03:10.183Z,16.47
2019-01-14T18:05:40.006Z,14.13
2019-01-14T18:08:43.709Z,9.33
2019-01-14T18:11:27.083Z,5.23
2019-01-14T18:13:57.012Z,4.13
2019-01-14T18:16:38.924Z,3.93
2019-01-14T18:22:32.211Z,3.70
2019-01-14T18:25:19.071Z,4.23
2019-01-14T18:28:18.367Z,3.80
2019-01-14T18:30:54.651Z,4.57
2019-01-14T18:33:24.889Z,3.53
2019-01-14T18:35:58.729Z,3.83
2019-01-14T18:38:41.980Z,3.40
2019-01-14T18:41:18.406Z,4.37
2019-01-14T18:44:02.883Z,4.80
2019-01-14T18:46:42.749Z,4.97
2019-01-14T18:49:23.075Z,5.10
2019-01-14T18:51:52.784Z,4.30
2019-01-14T18:54:27.989Z,5.10
2019-01-14T18:57:09.937Z,4.83
2019-01-14T18:59:48.881Z,3.17
2019-01-14T19:02:31.035Z,2.83
2019-01-14T19:05:20.083Z,3.83
2019-01-14T19:07:50.381Z,3.00
2019-01-14T19:10:20.243Z,2.80
2019-01-14T19:12:50.110Z,2.97
2019-01-14T19:15:20.494Z,2.90
2019-01-14T19:17:50.271Z,2.57
2019-01-14T19:20:23.628Z,2.57
2019-01-14T19:22:53.586Z,2.50
2019-01-14T19:25:23.388Z,3.37
2019-01-14T19:27:53.133Z,3.60
2019-01-14T19:30:23.758Z,4.20
2019-01-14T19:32:53.571Z,4.60
2019-01-14T19:35:23.290Z,4.30
2019-01-14T19:37:53.031Z,7.40
2019-01-14T19:40:23.208Z,6.63
2019-01-14T19:42:53.403Z,8.30
2019-01-14T19:45:23.465Z,7.80
2019-01-14T19:47:53.307Z,6.70
2019-01-14T19:50:24.080Z,4.00
2019-01-14T19:52:54.336Z,3.13
2019-01-14T19:55:24.117Z,3.67
2019-01-14T19:57:54.284Z,3.30
2019-01-14T20:00:28.293Z,2.83
2019-01-14T20:02:59.895Z,2.90
2019-01-14T20:05:29.627Z,3.50
2019-01-14T20:07:59.450Z,3.80
2019-01-14T20:10:29.301Z,5.23
2019-01-14T20:12:59.118Z,6.70
2019-01-14T20:15:29.946Z,8.47
2019-01-14T20:17:59.583Z,8.50
2019-01-14T20:20:31.003Z,6.40
2019-01-14T20:23:01.561Z,5.20
2019-01-14T20:25:31.377Z,4.13
2019-01-14T20:28:02.502Z,4.43
2019-01-14T20:30:33.814Z,3.90
2019-01-14T20:33:06.078Z,3.43
2019-01-14T20:35:36.135Z,3.07
2019-01-14T20:38:09.235Z,3.90
2019-01-14T20:40:38.961Z,4.00
2019-01-14T20:43:08.670Z,5.20
2019-01-14T20:45:38.439Z,6.30
2019-01-14T20:48:08.247Z,5.90
2019-01-14T20:50:38.982Z,6.20
2019-01-14T20:53:13.580Z,6.50
2019-01-14T20:55:40.297Z,5.67
2019-01-14T20:58:09.979Z,5.67
2019-01-14T21:00:39.820Z,4.27
2019-01-14T21:03:11.068Z,4.10
2019-01-14T21:05:40.869Z,5.00
2019-01-14T21:08:10.590Z,5.60
2019-01-14T21:10:40.265Z,5.20
2019-01-14T21:13:09.942Z,4.37
2019-01-14T21:15:39.710Z,3.73
2019-01-14T21:18:09.380Z,3.40
2019-01-14T21:20:39.322Z,3.53
2019-01-14T21:23:09.107Z,3.20
2019-01-14T21:25:38.741Z,4.00
2019-01-14T21:28:08.473Z,4.17
2019-01-14T21:30:38.232Z,3.20
2019-01-14T21:33:07.895Z,3.93
2019-01-14T21:35:37.739Z,4.90
2019-01-14T21:38:07.405Z,4.63
2019-01-14T21:40:37.101Z,3.67
2019-01-14T21:43:06.835Z,4.13
2019-01-14T21:45:36.663Z,4.33
2019-01-14T21:48:06.567Z,4.23
2019-01-14T21:50:36.249Z,5.77
2019-01-14T21:53:06.032Z,5.23
2019-01-14T21:55:35.672Z,6.00
2019-01-14T21:58:05.405Z,4.63
2019-01-14T22:00:35.247Z,4.07
2019-01-14T22:03:04.969Z,3.83
2019-01-14T22:05:34.640Z,3.77
2019-01-14T22:08:05.652Z,3.93
2019-01-14T22:10:36.124Z,4.50
2019-01-14T22:13:05.960Z,4.10
2019-01-14T22:15:35.688Z,4.00
2019-01-14T22:18:05.550Z,4.63
2019-01-14T22:20:35.214Z,4.57
2019-01-14T22:23:04.999Z,4.30
2019-01-14T22:25:34.662Z,4.40
2019-01-14T22:28:04.317Z,5.10
2019-01-14T22:30:34.096Z,5.33
2019-01-14T22:33:03.932Z,4.50
2019-01-14T22:35:33.632Z,6.33
2019-01-14T22:38:03.332Z,7.77
2019-01-14T22:40:33.049Z,12.53
2019-01-14T22:43:04.279Z,14.53
2019-01-14T22:45:34.171Z,13.37
2019-01-14T22:48:03.923Z,15.23
2019-01-14T22:50:33.556Z,14.10
2019-01-14T22:53:03.413Z,12.30
2019-01-14T22:55:33.130Z,9.70
2019-01-14T22:58:02.938Z,8.70
2019-01-14T23:00:58.078Z,8.30
2019-01-14T23:03:28.052Z,8.10
2019-01-14T23:05:57.721Z,8.13
2019-01-14T23:08:27.483Z,10.17
2019-01-14T23:10:57.131Z,8.57
2019-01-14T23:13:26.872Z,6.80
2019-01-14T23:15:58.162Z,5.70
2019-01-14T23:18:28.009Z,4.47
2019-01-14T23:20:57.797Z,4.77
2019-01-14T23:23:27.610Z,4.87
2019-01-14T23:25:57.478Z,4.57
2019-01-14T23:28:27.406Z,4.40
2019-01-14T23:30:57.129Z,4.57
2019-01-14T23:33:26.789Z,4.20
2019-01-14T23:35:56.474Z,5.20
2019-01-14T23:38:26.230Z,5.60
2019-01-14T23:40:56.106Z,4.43
2019-01-14T23:43:25.936Z,5.50
2019-01-14T23:45:55.657Z,6.13
2019-01-14T23:48:25.490Z,6.37
2019-01-14T23:50:55.157Z,4.57
2019-01-14T23:53:24.940Z,5.57
2019-01-14T23:55:54.691Z,5.30
2019-01-14T23:58:24.466Z,4.90
